Ana Sayfa
METAR-TAF:

METAR-TAF

Havaalanları :

Seattle-Tacoma International Airport

Seattle / Tacoma, Washington, Amerika Birleşik Devletleri

Enlem: 47-26-41N, Boylam: 122-18-49W, yükseklik: 130 m

Güncel hava durumu gözlemi

Rapor saat 03:53 UTC de 1 saat ve 3 dakika önce yapıldı.
Rüzgar kuzey/kuzeydoğudan 7 kt
Sıcaklık 14°C
Nem 63%
Basınç 1025 hPa
Görüş mesafesi: 16.1 km
Açık gökyüzü

METAR: KSEA 250353Z 03007KT 10SM CLR 14/07 A3028 RMK AO2 SLP259 T01440072

Saat: 21:56 (04:56 UTC)

Tahmin

Rapor saat 04:40 UTC de 16 dakika önce yapıldı.
Ayın 25'si saat 05 UTC'den ayın 26'si saat 06 UTC'ye kadar geçerli Tahmin
Rüzgar kuzey/kuzeydoğudan 8 kt
Görüş mesafesi: 10 km
Açık gökyüzü
Ayın 25'si saat 1800 UTC'den
Rüzgar kuzey/kuzeybatıdan 9 kt
Görüş mesafesi: 10 km
Açık gökyüzü

TAF: KSEA 250440Z 2505/2606 03008KT P6SM SKC FM251800 34009KT P6SM SKC

4.000'den fazla havaalanı için hava durumu gözlemleri ve tahminleri (METAR ve TAF raporları).

Kullanılabilir istasyonlar harita üzerinde sarı ve kırmızı noktalarla gösterilir.

İstasyonun adını görmek için fareyi noktanın üzerinde gezdirin.

Sonrasında hava gözlem ve tahminlerini görmek için tıklayın.

Haritayı değiştirmek için: yaklaştırmak için siyah artı işaretli yeşil düğmeye ve uzaklaştırmak için de eksi işaretli düğmeye hızla tıklayın; bitişik haritalar için yeşil okları kullanın.


METAR-TAF: